NCAR-RAP Real-Time Weather Data

Output produced by METARs form (06 May 2021  16:48 UTC)
found at http://weather.rap.ucar.edu/surface/
 
KRAL 061553Z 22004KT 3SM BR OVC007 15/13 A3005 RMK AO2 SLP162 T01500128
KRAL 061453Z 28005KT 3SM BR OVC005 14/12 A3004 RMK AO2 SLP161 T01440122 53018
KRAL 061353Z 25003KT 2SM BR OVC005 14/13 A3002 RMK AO2 SLP153 T01390128 $
KRAL 061343Z 23003KT 2SM BR OVC005 14/13 A3002 RMK AO2 T01390128 $
KRAL 061253Z AUTO 26005KT 5SM BR OVC004 14/13 A3000 RMK AO2 SLP145 T01390128 $
KRAL 061241Z AUTO 26004KT 6SM BR OVC004 14/13 A3000 RMK AO2 T01390128 $
KRAL 061153Z AUTO 27005KT 6SM BR OVC005 14/13 A2999 RMK AO2 SLP140 T01390128 10172 20133 55002 $
KRAL 061130Z AUTO 28005KT 7SM BKN005 14/13 A2998 RMK AO2 T01390128 $
KRAL 061121Z AUTO 27005KT 8SM SCT007 13/12 A2998 RMK AO2 T01330122 $
KRAL 061053Z AUTO 27003KT 10SM CLR 14/12 A2998 RMK AO2 SLP135 T01390122 $
KRAL 060953Z AUTO 00000KT 9SM CLR 14/12 A2998 RMK AO2 SLP137 T01390122 $
KRAL 060853Z AUTO 27006KT 10SM CLR 14/12 A3000 RMK AO2 SLP141 T01440122 58004 $
KRAL 060753Z AUTO 28003KT 10SM CLR 16/13 A3001 RMK AO2 SLP147 T01560128 403220139 $
KRAL 060653Z AUTO 26007KT 10SM CLR 16/13 A3002 RMK AO2 SLP148 T01560128 $
KRAL 060553Z AUTO 28004KT 10SM CLR 17/12 A3001 RMK AO2 SLP145 T01720122 10306 20172 51023 $
KRAL 060453Z AUTO 25006KT 10SM CLR 19/11 A2999 RMK AO2 SLP142 T01890111 $
KRAL 060353Z 28005KT 10SM CLR 21/11 A2997 RMK AO2 SLP134 T02110106 $